createdAt,value
2023-04-22T00:00:28.991Z,2.28
2023-04-22T00:02:56.555Z,1.83
2023-04-22T00:05:23.948Z,2.47
2023-04-22T00:07:51.129Z,3.17
2023-04-22T00:10:18.699Z,2.67
2023-04-22T00:12:45.667Z,3.38
2023-04-22T00:15:12.961Z,2.65
2023-04-22T00:17:40.986Z,3.00
2023-04-22T00:20:10.821Z,2.58
2023-04-22T00:22:37.871Z,2.30
2023-04-22T00:25:05.547Z,2.80
2023-04-22T00:27:32.752Z,2.58
2023-04-22T00:29:59.888Z,2.88
2023-04-22T00:32:27.356Z,2.22
2023-04-22T00:34:55.095Z,1.70
2023-04-22T00:37:22.194Z,2.35
2023-04-22T00:39:49.551Z,1.67
2023-04-22T00:42:17.577Z,2.03
2023-04-22T00:44:47.265Z,1.90
2023-04-22T00:47:14.879Z,1.65
2023-04-22T00:49:42.335Z,1.48
2023-04-22T00:52:09.311Z,1.70
2023-04-22T00:54:36.849Z,1.98
2023-04-22T00:57:04.445Z,1.55
2023-04-22T00:59:31.588Z,2.72
2023-04-22T01:01:59.048Z,2.90
2023-04-22T01:04:26.220Z,2.20
2023-04-22T01:06:56.413Z,2.40
2023-04-22T01:09:23.441Z,2.30
2023-04-22T01:11:50.695Z,2.38
2023-04-22T01:14:18.066Z,2.42
2023-04-22T01:16:45.918Z,1.80
2023-04-22T01:19:13.430Z,2.80
2023-04-22T01:21:41.605Z,2.20
2023-04-22T01:24:09.607Z,2.17
2023-04-22T01:26:37.295Z,2.00
2023-04-22T01:29:05.474Z,2.78
2023-04-22T01:31:33.336Z,2.63
2023-04-22T01:34:00.972Z,2.20
2023-04-22T01:36:28.502Z,2.22
2023-04-22T01:38:56.295Z,2.50
2023-04-22T01:41:23.416Z,2.67
2023-04-22T01:43:53.349Z,2.42
2023-04-22T01:46:20.507Z,2.00
2023-04-22T01:48:51.425Z,2.70
2023-04-22T01:51:20.816Z,1.80
2023-04-22T01:53:48.758Z,1.45
2023-04-22T01:56:16.282Z,2.30
2023-04-22T01:58:44.048Z,2.55
2023-04-22T02:01:12.639Z,2.42
2023-04-22T02:03:39.657Z,2.15
2023-04-22T02:06:07.699Z,1.80
2023-04-22T02:08:34.806Z,2.55
2023-04-22T02:11:02.165Z,2.00
2023-04-22T02:13:40.951Z,1.90
2023-04-22T02:16:08.699Z,2.30
2023-04-22T02:18:35.965Z,2.70
2023-04-22T02:21:05.433Z,2.38
2023-04-22T02:23:32.712Z,2.40
2023-04-22T02:25:59.681Z,2.22
2023-04-22T02:28:26.750Z,2.10
2023-04-22T02:30:53.757Z,2.40
2023-04-22T02:33:23.328Z,2.20
2023-04-22T02:35:51.812Z,2.30
2023-04-22T02:38:19.923Z,2.40
2023-04-22T02:40:47.057Z,2.40
2023-04-22T02:43:14.425Z,3.10
2023-04-22T02:45:41.898Z,2.67
2023-04-22T02:48:09.262Z,2.83
2023-04-22T02:50:36.583Z,3.53
2023-04-22T02:53:03.664Z,3.05
2023-04-22T02:55:30.622Z,3.42
2023-04-22T02:57:57.684Z,3.85
2023-04-22T03:00:24.761Z,2.75
2023-04-22T03:02:52.124Z,3.00
2023-04-22T03:05:23.299Z,2.90
2023-04-22T03:07:50.409Z,3.08
2023-04-22T03:10:17.592Z,2.85
2023-04-22T03:12:45.483Z,2.45
2023-04-22T03:15:12.977Z,2.83
2023-04-22T03:17:40.480Z,3.42
2023-04-22T03:20:11.755Z,3.40
2023-04-22T03:22:38.954Z,3.33
2023-04-22T03:25:08.448Z,3.05
2023-04-22T03:27:35.786Z,3.05
2023-04-22T03:30:04.658Z,2.80
2023-04-22T03:32:31.721Z,3.38
2023-04-22T03:35:16.609Z,2.95
2023-04-22T03:37:46.233Z,3.10
2023-04-22T03:40:17.980Z,2.80
2023-04-22T03:42:45.170Z,3.30
2023-04-22T03:45:12.305Z,3.25
2023-04-22T03:47:44.688Z,3.17
2023-04-22T03:50:21.311Z,3.53
2023-04-22T03:52:50.396Z,3.38
2023-04-22T03:55:20.756Z,3.63
2023-04-22T03:57:50.813Z,4.10
2023-04-22T04:00:17.952Z,4.45
2023-04-22T04:02:51.987Z,4.18
2023-04-22T04:05:24.599Z,3.97
2023-04-22T04:07:51.776Z,3.85
2023-04-22T04:10:18.798Z,4.93
2023-04-22T04:12:46.392Z,3.13
2023-04-22T04:15:13.514Z,3.85
2023-04-22T04:17:41.015Z,3.78
2023-04-22T04:20:09.149Z,3.75
2023-04-22T04:22:37.648Z,4.07
2023-04-22T04:25:06.894Z,2.90
2023-04-22T04:27:39.402Z,3.55
2023-04-22T04:30:07.693Z,3.65
2023-04-22T04:32:43.017Z,3.53
2023-04-22T04:35:14.113Z,4.00
2023-04-22T04:37:44.603Z,3.75
2023-04-22T04:40:14.805Z,3.97
2023-04-22T04:42:47.984Z,3.13
2023-04-22T04:45:22.422Z,3.15
2023-04-22T04:47:51.082Z,2.72
2023-04-22T04:50:23.816Z,3.50
2023-04-22T04:52:52.738Z,2.45
2023-04-22T04:55:24.565Z,3.00
2023-04-22T04:57:52.033Z,2.67
2023-04-22T05:00:19.611Z,2.20
2023-04-22T05:02:47.161Z,2.58
2023-04-22T05:05:14.743Z,2.75
2023-04-22T05:07:43.716Z,2.08
2023-04-22T05:10:12.541Z,1.90
2023-04-22T05:12:40.915Z,2.33
2023-04-22T05:15:11.361Z,1.60
2023-04-22T05:17:39.907Z,1.95
2023-04-22T05:20:07.822Z,1.67
2023-04-22T05:22:38.626Z,1.70
2023-04-22T05:25:06.211Z,1.67
2023-04-22T05:27:33.892Z,1.60
2023-04-22T05:30:02.595Z,1.52
2023-04-22T05:32:31.971Z,2.13
2023-04-22T05:34:59.062Z,1.50
2023-04-22T05:37:26.513Z,2.75
2023-04-22T05:39:53.512Z,2.50
2023-04-22T05:42:21.299Z,2.80
2023-04-22T05:44:49.260Z,2.72
2023-04-22T05:47:16.933Z,2.85
2023-04-22T05:49:44.258Z,2.80
2023-04-22T05:52:20.798Z,3.50
2023-04-22T05:55:10.377Z,2.20
2023-04-22T05:57:37.974Z,2.63
2023-04-22T06:00:10.587Z,2.22
2023-04-22T06:02:40.691Z,2.33
2023-04-22T06:05:08.810Z,2.65
2023-04-22T06:07:36.258Z,2.10
2023-04-22T06:10:07.027Z,2.47
2023-04-22T06:12:35.179Z,2.30
2023-04-22T06:15:02.227Z,2.83
2023-04-22T06:17:29.270Z,2.53
2023-04-22T06:19:57.000Z,2.85
2023-04-22T06:22:23.998Z,2.42
2023-04-22T06:24:51.053Z,2.97
2023-04-22T06:27:18.028Z,2.97
2023-04-22T06:29:45.311Z,3.28
2023-04-22T06:32:13.151Z,2.60
2023-04-22T06:34:42.311Z,2.47
2023-04-22T06:37:09.532Z,2.60
2023-04-22T06:39:36.795Z,3.22
2023-04-22T06:42:13.049Z,3.00
2023-04-22T06:45:12.894Z,2.50
2023-04-22T06:47:59.077Z,2.72
2023-04-22T06:50:36.516Z,1.98
2023-04-22T06:53:03.929Z,2.50
2023-04-22T06:55:31.029Z,1.83
2023-04-22T06:57:58.711Z,1.35
2023-04-22T07:00:26.855Z,1.50
2023-04-22T07:02:54.109Z,1.17
2023-04-22T07:05:21.740Z,1.52
2023-04-22T07:07:49.367Z,1.20
2023-04-22T07:10:20.630Z,1.23
2023-04-22T07:13:16.615Z,0.90
2023-04-22T07:15:46.209Z,1.27
2023-04-22T07:18:13.597Z,1.80
2023-04-22T07:20:40.800Z,1.42
2023-04-22T07:23:07.942Z,2.05
2023-04-22T07:25:35.428Z,1.80
2023-04-22T07:28:02.682Z,1.70
2023-04-22T07:30:30.182Z,1.65
2023-04-22T07:32:57.687Z,1.20
2023-04-22T07:35:25.018Z,1.13
2023-04-22T07:37:52.480Z,0.90
2023-04-22T07:40:20.173Z,1.00
2023-04-22T07:42:47.330Z,1.20
2023-04-22T07:45:14.739Z,0.80
2023-04-22T07:47:42.260Z,1.15
2023-04-22T07:50:09.787Z,1.17
2023-04-22T07:52:37.198Z,1.02
2023-04-22T07:55:04.930Z,0.85
2023-04-22T07:57:36.202Z,1.20
2023-04-22T08:00:03.645Z,1.05
2023-04-22T08:02:39.843Z,1.25
2023-04-22T08:05:07.569Z,1.58
2023-04-22T08:07:34.616Z,0.90
2023-04-22T08:10:02.039Z,0.88
2023-04-22T08:12:29.098Z,1.35
2023-04-22T08:14:57.967Z,1.48
2023-04-22T08:17:25.191Z,0.80
2023-04-22T08:19:52.580Z,1.13
2023-04-22T08:22:20.161Z,1.25
2023-04-22T08:24:47.166Z,1.30
2023-04-22T08:27:14.287Z,0.80
2023-04-22T08:29:42.132Z,1.30
2023-04-22T08:32:09.566Z,1.02
2023-04-22T08:34:37.210Z,0.90
2023-04-22T08:37:04.651Z,1.23
2023-04-22T08:39:31.693Z,0.90
2023-04-22T08:41:59.056Z,1.20
2023-04-22T08:44:26.923Z,1.10
2023-04-22T08:46:54.599Z,1.20
2023-04-22T08:49:25.179Z,0.77
2023-04-22T08:51:53.506Z,0.95
2023-04-22T08:54:23.966Z,1.02
2023-04-22T08:56:51.794Z,1.33
2023-04-22T08:59:20.707Z,1.13
2023-04-22T09:01:53.531Z,1.33
2023-04-22T09:04:21.067Z,0.82
2023-04-22T09:06:48.349Z,1.17
2023-04-22T09:09:15.923Z,0.80
2023-04-22T09:11:42.943Z,1.20
2023-04-22T09:14:10.169Z,0.98
2023-04-22T09:16:47.940Z,0.98
2023-04-22T09:19:15.753Z,1.20
2023-04-22T09:21:43.240Z,0.70
2023-04-22T09:24:12.162Z,1.20
2023-04-22T09:26:43.950Z,0.82
2023-04-22T09:29:16.350Z,1.10
2023-04-22T09:31:48.829Z,1.20
2023-04-22T09:34:15.979Z,0.77
2023-04-22T09:36:44.056Z,0.73
2023-04-22T09:39:11.727Z,0.80
2023-04-22T09:41:41.142Z,0.77
2023-04-22T09:44:16.722Z,0.80
2023-04-22T09:46:44.841Z,0.80
2023-04-22T09:49:12.261Z,0.75
2023-04-22T09:51:42.590Z,0.70
2023-04-22T09:54:10.791Z,0.70
2023-04-22T09:56:52.508Z,0.95
2023-04-22T09:59:23.718Z,0.73
2023-04-22T10:02:07.253Z,0.70
2023-04-22T10:04:34.675Z,0.90
2023-04-22T10:07:04.894Z,0.60
2023-04-22T10:09:32.277Z,0.98
2023-04-22T10:11:59.623Z,0.73
2023-04-22T10:14:27.078Z,0.70
2023-04-22T10:17:00.309Z,0.90
2023-04-22T10:19:27.964Z,0.90
2023-04-22T10:21:58.560Z,0.80
2023-04-22T10:24:35.105Z,1.15
2023-04-22T10:27:08.592Z,6.40
2023-04-22T10:29:43.396Z,3.92
2023-04-22T10:32:11.063Z,3.00
2023-04-22T10:34:41.416Z,2.65
2023-04-22T10:37:11.875Z,2.20
2023-04-22T10:39:42.818Z,1.40
2023-04-22T10:42:17.518Z,1.25
2023-04-22T10:45:01.810Z,3.42
2023-04-22T10:47:39.054Z,2.35
2023-04-22T10:50:26.510Z,1.80
2023-04-22T10:52:58.372Z,2.05
2023-04-22T10:55:26.294Z,1.40
2023-04-22T10:57:54.278Z,1.10
2023-04-22T11:00:45.671Z,1.38
2023-04-22T11:03:26.041Z,1.42
2023-04-22T11:06:17.941Z,1.10
2023-04-22T11:08:50.484Z,1.15
2023-04-22T11:11:19.150Z,1.00
2023-04-22T11:13:50.655Z,1.13
2023-04-22T11:18:48.236Z,1.33
2023-04-22T11:21:15.622Z,1.20
2023-04-22T11:23:54.300Z,0.93
2023-04-22T11:26:35.215Z,1.20
2023-04-22T11:29:02.424Z,1.40
2023-04-22T11:31:29.662Z,1.42
2023-04-22T11:34:00.453Z,0.80
2023-04-22T11:36:27.779Z,1.17
2023-04-22T11:38:56.395Z,1.00
2023-04-22T11:41:23.968Z,1.10
2023-04-22T11:43:51.435Z,0.90
2023-04-22T11:46:30.420Z,0.80
2023-04-22T11:49:16.715Z,1.10
2023-04-22T11:51:55.821Z,0.90
2023-04-22T11:54:37.864Z,0.90
2023-04-22T11:57:15.508Z,1.08
2023-04-22T11:59:43.025Z,0.80
2023-04-22T12:02:10.621Z,1.10
2023-04-22T12:04:42.192Z,1.10
2023-04-22T12:09:36.373Z,1.00
2023-04-22T12:12:04.820Z,0.88
2023-04-22T12:14:35.862Z,0.75
2023-04-22T12:17:09.693Z,1.10
2023-04-22T12:19:37.918Z,1.20
2023-04-22T12:22:05.107Z,1.23
2023-04-22T12:24:32.705Z,0.95
2023-04-22T12:27:00.051Z,1.00
2023-04-22T12:29:31.000Z,1.27
2023-04-22T12:31:58.429Z,0.57
2023-04-22T12:34:25.921Z,1.02
2023-04-22T12:36:52.989Z,1.00
2023-04-22T12:39:20.494Z,0.98
2023-04-22T12:41:50.943Z,0.75
2023-04-22T12:44:17.916Z,1.17
2023-04-22T12:46:45.267Z,1.00
2023-04-22T12:49:14.441Z,1.10
2023-04-22T12:51:42.157Z,1.00
2023-04-22T12:54:10.656Z,0.98
2023-04-22T12:56:37.670Z,1.05
2023-04-22T12:59:04.972Z,0.70
2023-04-22T13:01:33.756Z,0.90
2023-04-22T13:04:01.935Z,1.08
2023-04-22T13:06:29.546Z,1.17
2023-04-22T13:08:56.486Z,1.05
2023-04-22T13:11:24.617Z,1.33
2023-04-22T13:13:52.297Z,1.25
2023-04-22T13:16:20.169Z,1.10
2023-04-22T13:18:47.592Z,1.20
2023-04-22T13:21:15.272Z,1.10
2023-04-22T13:23:43.249Z,1.10
2023-04-22T13:26:10.616Z,0.98
2023-04-22T13:28:38.187Z,1.00
2023-04-22T13:31:05.298Z,1.67
2023-04-22T13:33:32.293Z,2.33
2023-04-22T13:35:59.358Z,1.90
2023-04-22T13:38:27.070Z,0.90
2023-04-22T13:40:54.429Z,2.38
2023-04-22T13:43:22.061Z,3.58
2023-04-22T13:45:49.252Z,1.10
2023-04-22T13:48:16.294Z,1.10
2023-04-22T13:50:43.886Z,2.45
2023-04-22T13:53:11.852Z,1.30
2023-04-22T13:55:39.999Z,1.30
2023-04-22T13:58:08.317Z,0.80
2023-04-22T14:00:35.966Z,0.40
2023-04-22T14:03:03.338Z,0.98
2023-04-22T14:05:30.875Z,1.75
2023-04-22T14:07:59.202Z,1.00
2023-04-22T14:10:28.381Z,1.30
2023-04-22T14:12:55.844Z,1.45
2023-04-22T14:15:22.845Z,1.40
2023-04-22T14:17:49.975Z,2.03
2023-04-22T14:20:19.353Z,2.67
2023-04-22T14:22:46.714Z,3.13
2023-04-22T14:25:14.476Z,2.00
2023-04-22T14:27:41.580Z,2.83
2023-04-22T14:30:09.238Z,2.20
2023-04-22T14:32:37.275Z,1.85
2023-04-22T14:35:04.772Z,1.83
2023-04-22T14:37:32.235Z,1.65
2023-04-22T14:39:59.256Z,2.38
2023-04-22T14:42:26.364Z,1.85
2023-04-22T14:44:53.636Z,1.63
2023-04-22T14:47:20.577Z,2.20
2023-04-22T14:49:47.610Z,1.70
2023-04-22T14:52:15.186Z,1.85
2023-04-22T14:54:42.161Z,1.85
2023-04-22T14:57:09.148Z,2.30
2023-04-22T14:59:36.425Z,2.35
2023-04-22T15:02:05.384Z,2.08
2023-04-22T15:04:32.663Z,2.00
2023-04-22T15:07:00.090Z,1.65
2023-04-22T15:09:27.885Z,1.67
2023-04-22T15:11:56.576Z,1.55
2023-04-22T15:14:23.720Z,1.70
2023-04-22T15:16:50.730Z,1.75
2023-04-22T15:19:17.669Z,1.92
2023-04-22T15:21:44.712Z,1.63
2023-04-22T15:24:12.243Z,1.85
2023-04-22T15:26:40.572Z,2.60
2023-04-22T15:29:07.794Z,1.50
2023-04-22T15:31:35.072Z,1.90
2023-04-22T15:34:02.031Z,1.45
2023-04-22T15:36:30.059Z,1.90
2023-04-22T15:38:57.095Z,2.30
2023-04-22T15:41:24.947Z,2.08
2023-04-22T15:43:53.150Z,3.10
2023-04-22T15:46:20.785Z,1.98
2023-04-22T15:48:48.859Z,1.40
2023-04-22T15:51:17.110Z,1.75
2023-04-22T15:53:47.256Z,1.55
2023-04-22T15:56:15.361Z,1.40
2023-04-22T15:58:42.304Z,1.75
2023-04-22T16:01:18.885Z,1.55
2023-04-22T16:03:48.326Z,1.55
2023-04-22T16:06:16.688Z,1.67
2023-04-22T16:08:45.601Z,1.65
2023-04-22T16:11:15.255Z,1.40
2023-04-22T16:13:42.526Z,1.65
2023-04-22T16:16:09.835Z,2.08
2023-04-22T16:18:37.656Z,3.35
2023-04-22T16:21:05.878Z,2.47
2023-04-22T16:23:34.500Z,1.77
2023-04-22T16:26:02.806Z,1.50
2023-04-22T16:28:29.853Z,2.05
2023-04-22T16:30:56.894Z,1.80
2023-04-22T16:33:25.128Z,1.35
2023-04-22T16:35:52.104Z,1.13
2023-04-22T16:38:19.131Z,1.00
2023-04-22T16:40:46.359Z,1.08
2023-04-22T16:43:13.282Z,1.33
2023-04-22T16:45:40.573Z,1.63
2023-04-22T16:48:07.595Z,1.30
2023-04-22T16:50:34.636Z,1.02
2023-04-22T16:53:01.810Z,1.23
2023-04-22T16:55:28.763Z,0.80
2023-04-22T16:57:56.052Z,1.90
2023-04-22T17:00:24.094Z,1.45
2023-04-22T17:02:51.564Z,1.30
2023-04-22T17:05:18.719Z,1.55
2023-04-22T17:07:45.826Z,1.60
2023-04-22T17:10:12.760Z,1.33
2023-04-22T17:12:40.003Z,1.02
2023-04-22T17:15:08.223Z,1.60
2023-04-22T17:17:35.669Z,1.27
2023-04-22T17:20:02.748Z,1.20
2023-04-22T17:22:29.907Z,1.20
2023-04-22T17:24:58.760Z,1.38
2023-04-22T17:27:25.931Z,1.85
2023-04-22T17:29:53.197Z,1.45
2023-04-22T17:32:20.265Z,1.33
2023-04-22T17:34:50.397Z,1.50
2023-04-22T17:37:17.542Z,1.42
2023-04-22T17:39:44.517Z,1.60
2023-04-22T17:42:12.021Z,1.17
2023-04-22T17:44:39.371Z,1.85
2023-04-22T17:47:07.455Z,1.77
2023-04-22T17:49:34.728Z,1.70
2023-04-22T17:52:03.026Z,1.73
2023-04-22T17:54:30.088Z,1.75
2023-04-22T17:56:57.126Z,1.13
2023-04-22T17:59:27.194Z,1.60
2023-04-22T18:01:54.306Z,1.60
2023-04-22T18:04:21.558Z,1.88
2023-04-22T18:06:51.541Z,1.33
2023-04-22T18:09:18.642Z,1.58
2023-04-22T18:11:45.789Z,1.63
2023-04-22T18:14:12.718Z,1.70
2023-04-22T18:16:39.679Z,1.60
2023-04-22T18:19:06.934Z,2.00
2023-04-22T18:21:34.507Z,2.05
2023-04-22T18:24:02.644Z,1.98
2023-04-22T18:26:29.632Z,1.70
2023-04-22T18:28:56.643Z,1.67
2023-04-22T18:31:24.069Z,1.45
2023-04-22T18:33:51.086Z,1.80
2023-04-22T18:36:18.602Z,2.53
2023-04-22T18:38:45.745Z,1.60
2023-04-22T18:41:13.608Z,1.75
2023-04-22T18:43:40.924Z,1.92
2023-04-22T18:46:08.536Z,2.05
2023-04-22T18:48:35.622Z,5.18
2023-04-22T18:51:02.600Z,4.07
2023-04-22T18:53:29.623Z,3.78
2023-04-22T18:55:56.615Z,4.85
2023-04-22T18:58:24.513Z,6.38
2023-04-22T19:00:51.575Z,2.78
2023-04-22T19:03:19.686Z,2.10
2023-04-22T19:05:46.862Z,2.20
2023-04-22T19:08:17.362Z,2.15
2023-04-22T19:10:44.841Z,1.95
2023-04-22T19:13:22.244Z,2.53
2023-04-22T19:15:56.173Z,2.38
2023-04-22T19:18:23.158Z,1.83
2023-04-22T19:20:50.965Z,1.55
2023-04-22T19:23:18.175Z,1.63
2023-04-22T19:25:45.787Z,1.73
2023-04-22T19:28:13.124Z,1.85
2023-04-22T19:30:40.184Z,1.75
2023-04-22T19:33:07.443Z,1.55
2023-04-22T19:35:34.399Z,1.38
2023-04-22T19:38:01.408Z,1.88
2023-04-22T19:40:29.285Z,1.50
2023-04-22T19:42:58.948Z,1.98
2023-04-22T19:45:27.036Z,1.75
2023-04-22T19:47:54.303Z,1.52
2023-04-22T19:50:21.846Z,1.88
2023-04-22T19:52:50.920Z,1.73
2023-04-22T19:55:21.777Z,1.90
2023-04-22T19:57:52.558Z,1.42
2023-04-22T20:00:20.440Z,1.98
2023-04-22T20:02:47.859Z,1.95
2023-04-22T20:05:15.448Z,1.80
2023-04-22T20:07:44.434Z,1.88
2023-04-22T20:10:11.732Z,2.05
2023-04-22T20:12:38.744Z,2.00
2023-04-22T20:15:06.739Z,2.72
2023-04-22T20:17:38.450Z,1.80
2023-04-22T20:22:34.991Z,2.13
2023-04-22T20:25:05.448Z,2.10
2023-04-22T20:27:34.427Z,2.25
2023-04-22T20:30:02.194Z,2.40
2023-04-22T20:32:29.613Z,2.20
2023-04-22T20:34:58.503Z,1.90
2023-04-22T20:37:27.128Z,1.90
2023-04-22T20:39:54.752Z,1.50
2023-04-22T20:42:22.035Z,2.40
2023-04-22T20:44:49.019Z,1.90
2023-04-22T20:47:16.471Z,1.80
2023-04-22T20:49:44.019Z,1.95
2023-04-22T20:52:12.357Z,2.15
2023-04-22T20:54:40.292Z,1.80
2023-04-22T20:57:08.174Z,1.85
2023-04-22T20:59:35.898Z,1.90
2023-04-22T21:02:06.618Z,2.10
2023-04-22T21:04:34.631Z,2.03
2023-04-22T21:07:07.182Z,2.08
2023-04-22T21:09:34.622Z,2.30
2023-04-22T21:12:02.492Z,1.80
2023-04-22T21:14:29.842Z,2.30
2023-04-22T21:17:35.857Z,2.22
2023-04-22T21:20:09.237Z,2.83
2023-04-22T21:22:37.793Z,2.28
2023-04-22T21:25:05.987Z,2.30
2023-04-22T21:27:33.117Z,2.40
2023-04-22T21:30:00.865Z,1.95
2023-04-22T21:32:29.404Z,2.00
2023-04-22T21:34:56.783Z,1.90
2023-04-22T21:37:24.397Z,2.25
2023-04-22T21:39:51.438Z,2.33
2023-04-22T21:42:18.494Z,2.40
2023-04-22T21:44:49.692Z,1.83
2023-04-22T21:47:17.128Z,2.47
2023-04-22T21:49:45.875Z,2.15
2023-04-22T21:52:12.813Z,2.58
2023-04-22T21:54:39.957Z,2.40
2023-04-22T21:57:07.105Z,1.85
2023-04-22T21:59:34.177Z,1.85
2023-04-22T22:02:01.741Z,1.90
2023-04-22T22:04:28.854Z,1.52
2023-04-22T22:06:56.087Z,2.05
2023-04-22T22:09:23.034Z,1.63
2023-04-22T22:11:49.924Z,1.65
2023-04-22T22:14:17.250Z,2.00
2023-04-22T22:16:44.627Z,2.22
2023-04-22T22:19:11.621Z,1.80
2023-04-22T22:21:38.706Z,1.83
2023-04-22T22:24:06.057Z,1.52
2023-04-22T22:26:33.061Z,2.13
2023-04-22T22:28:59.987Z,1.90
2023-04-22T22:31:27.661Z,1.90
2023-04-22T22:33:55.265Z,2.22
2023-04-22T22:36:22.228Z,1.88
2023-04-22T22:38:49.236Z,2.08
2023-04-22T22:41:16.197Z,2.15
2023-04-22T22:43:43.690Z,1.77
2023-04-22T22:46:10.771Z,1.50
2023-04-22T22:48:38.149Z,2.28
2023-04-22T22:51:05.135Z,1.80
2023-04-22T22:53:34.235Z,1.50
2023-04-22T22:56:01.167Z,1.95
2023-04-22T22:58:28.305Z,1.70
2023-04-22T23:00:55.358Z,1.92
2023-04-22T23:03:22.596Z,1.55
2023-04-22T23:05:49.702Z,1.95
2023-04-22T23:08:16.826Z,1.58
2023-04-22T23:10:43.864Z,1.60
2023-04-22T23:13:10.875Z,1.70
2023-04-22T23:15:37.950Z,1.77
2023-04-22T23:18:05.064Z,1.83
2023-04-22T23:20:32.765Z,1.40
2023-04-22T23:23:01.554Z,1.60
2023-04-22T23:25:29.506Z,1.60
2023-04-22T23:27:56.691Z,1.55
2023-04-22T23:30:24.321Z,1.23
2023-04-22T23:32:52.115Z,1.38
2023-04-22T23:35:20.488Z,1.58
2023-04-22T23:37:51.070Z,1.38
2023-04-22T23:40:18.086Z,1.42
2023-04-22T23:42:45.016Z,1.30
2023-04-22T23:45:12.377Z,1.35
2023-04-22T23:47:39.619Z,1.52
2023-04-22T23:50:07.514Z,2.30
2023-04-22T23:52:40.611Z,1.70
2023-04-22T23:55:13.846Z,1.60
2023-04-22T23:57:41.114Z,1.92
